Time;durP1;ratioP1;P1;durP2;ratioP2;P2;SDS_P1;SDS_P2;PMS_P1;PMS_P2;Temp;Humidity;BMP_temperature;BMP_pressure;BME280_temperature;BME280_humidity;BME280_pressure;Samples;Min_cycle;Max_cycle;Signal;HPM_P1;HPM_P2
2022/03/05 00:02:26;;;;;;;0.55;0.30;;;;;;;13.30;48.52;101143.34;5049335;28;20491;-72
2022/03/05 00:04:54;;;;;;;0.20;0.20;;;;;;;13.29;48.77;101142.47;5049155;28;20085;-71
2022/03/05 00:07:23;;;;;;;1.63;0.30;;;;;;;13.31;49.70;101137.28;5035117;28;20045;-71
2022/03/05 00:09:51;;;;;;;0.88;0.22;;;;;;;13.31;48.80;101139.88;5048805;28;20545;-72
2022/03/05 00:12:20;;;;;;;0.30;0.20;;;;;;;13.31;50.56;101140.78;5048546;28;20365;-70
2022/03/05 00:14:48;;;;;;;0.20;0.20;;;;;;;13.28;49.84;101139.81;5036615;28;20081;-71
2022/03/05 00:17:18;;;;;;;0.60;0.30;;;;;;;13.18;51.51;101141.28;5049433;28;20045;-73
2022/03/05 00:19:47;;;;;;;0.30;0.20;;;;;;;13.10;50.36;101135.91;5049791;28;20056;-71
2022/03/05 00:22:15;;;;;;;0.95;0.35;;;;;;;13.11;51.11;101132.44;5049162;28;20621;-72
2022/03/05 00:24:45;;;;;;;0.43;0.30;;;;;;;13.05;50.66;101128.81;5049843;28;20045;-72
2022/03/05 00:27:13;;;;;;;1.17;0.22;;;;;;;13.04;52.43;101135.72;5051811;28;20537;-71
2022/03/05 00:29:42;;;;;;;0.55;0.40;;;;;;;13.04;51.09;101132.28;5049110;28;20055;-71
2022/03/05 00:32:10;;;;;;;0.77;0.30;;;;;;;13.01;52.25;101125.28;5048771;28;20530;-73
2022/03/05 00:34:41;;;;;;;0.47;0.28;;;;;;;12.97;51.93;101134.69;5049075;28;20049;-72
2022/03/05 00:37:10;;;;;;;0.65;0.43;;;;;;;12.95;52.08;101135.50;5034707;28;20052;-72
2022/03/05 00:39:38;;;;;;;0.43;0.35;;;;;;;12.93;52.08;101131.97;5048583;28;20503;-73
2022/03/05 00:42:07;;;;;;;0.65;0.35;;;;;;;12.90;50.81;101134.50;5048761;28;20106;-74
2022/03/05 00:44:36;;;;;;;0.47;0.43;;;;;;;12.88;50.88;101139.66;5049120;28;20053;-73
2022/03/05 00:47:05;;;;;;;1.08;0.68;;;;;;;12.85;51.88;101143.88;5048837;28;20076;-74
2022/03/05 00:49:33;;;;;;;0.60;0.28;;;;;;;12.77;52.28;101149.75;5048112;28;20045;-72
2022/03/05 00:52:04;;;;;;;0.95;0.63;;;;;;;12.71;52.35;101141.81;5048397;28;20045;-72
2022/03/05 00:54:33;;;;;;;0.50;0.40;;;;;;;12.66;52.53;101143.38;5048061;28;20049;-72
2022/03/05 00:57:01;;;;;;;0.52;0.30;;;;;;;12.55;52.99;101147.41;5048779;28;20091;-71
2022/03/05 00:59:30;;;;;;;1.52;0.60;;;;;;;12.50;53.36;101147.28;5048318;28;20533;-72
2022/03/05 01:01:58;;;;;;;0.77;0.45;;;;;;;12.45;53.98;101153.19;5047762;28;20505;-72
2022/03/05 01:04:27;;;;;;;0.57;0.40;;;;;;;12.39;54.51;101148.69;5047370;28;20499;-72
2022/03/05 01:06:55;;;;;;;0.55;0.40;;;;;;;12.34;54.81;101151.16;5034658;28;20077;-72
2022/03/05 01:09:25;;;;;;;0.68;0.50;;;;;;;12.32;55.93;101158.03;5047007;28;20078;-72
2022/03/05 01:11:54;;;;;;;0.57;0.50;;;;;;;12.26;55.62;101157.84;5048129;28;20102;-72
2022/03/05 01:14:22;;;;;;;3.03;1.50;;;;;;;12.20;56.47;101162.84;5035804;28;20044;-73
2022/03/05 01:16:51;;;;;;;1.27;0.70;;;;;;;12.18;56.52;101164.53;5048202;28;20054;-73
2022/03/05 01:19:19;;;;;;;2.10;0.93;;;;;;;12.16;57.51;101168.78;5048409;28;20049;-72
2022/03/05 01:21:47;;;;;;;2.55;1.45;;;;;;;12.17;57.38;101161.91;5037541;28;20057;-72
2022/03/05 01:24:17;;;;;;;3.30;0.65;;;;;;;12.17;56.72;101167.09;5048221;28;20049;-72
2022/03/05 01:26:47;;;;;;;0.95;0.52;;;;;;;12.07;57.22;101168.50;5048206;28;20055;-72
2022/03/05 01:29:15;;;;;;;1.30;0.68;;;;;;;12.03;58.29;101171.88;5047956;28;20056;-71
2022/03/05 01:31:46;;;;;;;1.17;0.47;;;;;;;12.00;57.81;101179.53;5047785;28;20056;-71
2022/03/05 01:34:14;;;;;;;0.60;0.40;;;;;;;11.97;58.50;101169.06;5048415;28;20045;-72
2022/03/05 01:36:43;;;;;;;0.60;0.50;;;;;;;11.94;58.41;101180.25;5048055;28;20049;-72
2022/03/05 01:39:12;;;;;;;0.68;0.50;;;;;;;11.88;58.71;101183.50;5047501;28;20053;-70
2022/03/05 01:41:40;;;;;;;0.50;0.40;;;;;;;11.71;57.77;101166.53;5047297;28;20128;-71
2022/03/05 01:44:10;;;;;;;1.40;0.50;;;;;;;11.66;59.84;101187.13;5047007;28;20128;-71
2022/03/05 01:46:40;;;;;;;0.50;0.30;;;;;;;11.56;60.08;101182.47;5047264;28;20045;-71
2022/03/05 01:49:11;;;;;;;2.25;0.65;;;;;;;11.42;59.29;101192.38;5047744;28;20045;-70
2022/03/05 01:51:41;;;;;;;2.10;0.43;;;;;;;11.23;60.22;101182.25;5047889;28;20045;-71
2022/03/05 01:54:09;;;;;;;0.90;0.47;;;;;;;11.20;60.29;101195.97;5047776;28;20053;-71
2022/03/05 01:56:39;;;;;;;1.02;0.70;;;;;;;11.12;60.66;101200.00;5047479;28;20110;-71
2022/03/05 01:59:10;;;;;;;0.95;0.68;;;;;;;11.03;63.11;101203.16;5047622;28;20049;-72
2022/03/05 02:01:39;;;;;;;1.60;0.50;;;;;;;10.93;62.57;101206.25;5033469;28;20094;-71
2022/03/05 02:04:08;;;;;;;1.27;0.65;;;;;;;10.84;62.86;101208.53;5049540;28;20099;-73
2022/03/05 02:06:36;;;;;;;3.05;0.50;;;;;;;10.77;65.52;101207.41;5040860;28;20046;-73
2022/03/05 02:09:05;;;;;;;1.67;0.80;;;;;;;10.72;66.19;101210.66;5048285;28;20095;-73
2022/03/05 02:11:33;;;;;;;1.95;0.80;;;;;;;10.54;65.64;101204.00;5051248;28;20045;-72
2022/03/05 02:14:02;;;;;;;0.98;0.50;;;;;;;10.50;65.40;101207.28;5039000;28;20053;-72
2022/03/05 02:16:32;;;;;;;0.55;0.40;;;;;;;10.43;65.19;101221.72;5051814;28;20105;-73
2022/03/05 02:19:02;;;;;;;3.05;0.60;;;;;;;10.36;66.57;101222.31;5054027;28;20045;-80
2022/03/05 02:21:32;;;;;;;0.82;0.60;;;;;;;10.31;65.86;101231.59;5052504;28;20059;-72
2022/03/05 02:24:00;;;;;;;1.30;0.68;;;;;;;10.25;65.83;101231.31;5051615;28;20053;-72
2022/03/05 02:26:29;;;;;;;0.30;0.30;;;;;;;10.16;66.51;101230.97;5051166;28;20080;-74
2022/03/05 02:28:58;;;;;;;0.35;0.30;;;;;;;10.07;66.46;101232.38;5041749;28;20322;-77
2022/03/05 02:31:26;;;;;;;0.80;0.47;;;;;;;10.01;66.11;101241.56;5046624;28;20397;-73
2022/03/05 02:33:55;;;;;;;1.08;0.38;;;;;;;9.96;66.96;101243.97;5051248;28;20060;-72
2022/03/05 02:36:26;;;;;;;1.27;0.32;;;;;;;9.89;67.53;101256.63;5048706;28;20045;-73
2022/03/05 02:38:56;;;;;;;1.52;0.68;;;;;;;9.83;68.26;101260.72;5048934;28;20087;-72
2022/03/05 02:41:25;;;;;;;1.42;0.60;;;;;;;9.77;68.00;101259.59;5049750;28;20520;-73
2022/03/05 02:43:53;;;;;;;1.33;0.65;;;;;;;9.70;68.86;101263.63;5050684;28;20045;-73
2022/03/05 02:46:28;;;;;;;0.60;0.50;;;;;;;9.62;68.59;101258.16;5050609;28;20465;-73
2022/03/05 02:48:56;;;;;;;1.30;0.50;;;;;;;9.57;67.61;101264.81;5050473;28;20045;-72
2022/03/05 02:51:25;;;;;;;3.22;0.50;;;;;;;9.55;68.70;101265.56;5050800;28;20133;-72
2022/03/05 02:53:53;;;;;;;0.47;0.40;;;;;;;9.50;68.63;101269.66;5049704;28;20056;-72
2022/03/05 02:56:23;;;;;;;0.50;0.35;;;;;;;9.43;68.33;101271.97;5050955;28;20114;-72
2022/03/05 02:58:52;;;;;;;0.75;0.70;;;;;;;9.38;68.87;101275.19;5050925;28;20110;-74
2022/03/05 03:01:20;;;;;;;0.85;0.50;;;;;;;9.34;69.83;101276.75;5049932;28;20118;-74
2022/03/05 03:03:49;;;;;;;1.42;0.47;;;;;;;9.28;69.93;101281.66;5049911;28;20452;-76
2022/03/05 03:06:17;;;;;;;1.20;0.60;;;;;;;9.24;70.55;101284.94;5040234;28;20053;-73
2022/03/05 03:08:46;;;;;;;0.52;0.30;;;;;;;9.20;70.76;101288.19;5042707;28;20091;-71
2022/03/05 03:11:14;;;;;;;1.40;0.40;;;;;;;9.16;69.67;101283.69;5049532;28;20045;-73
2022/03/05 03:13:44;;;;;;;0.73;0.47;;;;;;;9.08;70.31;101269.59;5038791;28;20054;-72
2022/03/05 03:16:13;;;;;;;2.10;0.98;;;;;;;9.13;70.74;101286.16;5049970;28;20071;-74
2022/03/05 03:18:41;;;;;;;2.13;1.20;;;;;;;9.11;70.44;101291.25;5050650;28;20179;-74
2022/03/05 03:21:10;;;;;;;3.40;1.75;;;;;;;9.09;71.47;101298.03;5051433;28;20057;-75
2022/03/05 03:23:38;;;;;;;6.07;2.55;;;;;;;9.04;70.52;101285.75;5050058;28;20108;-75
2022/03/05 03:26:07;;;;;;;3.45;0.85;;;;;;;9.01;71.39;101305.44;5049189;28;20073;-74
2022/03/05 03:28:35;;;;;;;1.67;0.70;;;;;;;9.01;71.15;101302.00;5037108;28;20084;-75
2022/03/05 03:31:05;;;;;;;2.95;1.02;;;;;;;8.95;71.62;101296.56;5049941;28;20103;-76
2022/03/05 03:33:34;;;;;;;2.72;1.02;;;;;;;9.00;71.49;101311.44;5049542;28;20049;-76
2022/03/05 03:36:02;;;;;;;2.97;1.27;;;;;;;8.96;72.25;101308.66;5049898;28;20374;-76
2022/03/05 03:38:31;;;;;;;2.53;1.20;;;;;;;8.95;73.02;101312.03;5048898;28;20059;-76
2022/03/05 03:40:59;;;;;;;3.25;1.20;;;;;;;8.93;72.67;101306.81;5049482;28;20546;-75
2022/03/05 03:43:27;;;;;;;1.38;0.80;;;;;;;8.88;72.82;101308.28;5048684;28;20286;-76
2022/03/05 03:45:56;;;;;;;2.17;0.82;;;;;;;8.84;73.69;101308.97;5048988;28;20084;-76
2022/03/05 03:48:26;;;;;;;2.10;1.00;;;;;;;8.83;72.79;101314.94;5049319;28;20128;-75
2022/03/05 03:50:55;;;;;;;1.85;0.70;;;;;;;8.80;73.94;101307.09;5049177;28;20053;-75
2022/03/05 03:53:23;;;;;;;1.95;1.10;;;;;;;8.78;74.29;101316.44;5049492;28;20053;-75
2022/03/05 03:55:52;;;;;;;1.63;0.80;;;;;;;8.76;73.23;101316.38;5049142;28;20052;-75
2022/03/05 03:58:20;;;;;;;1.63;0.80;;;;;;;8.71;72.81;101323.03;5049639;28;20071;-73
2022/03/05 04:00:49;;;;;;;1.02;0.75;;;;;;;8.67;72.97;101325.38;5049754;28;20499;-75
2022/03/05 04:03:17;;;;;;;1.85;0.93;;;;;;;8.65;73.93;101321.84;5035263;28;20045;-75
2022/03/05 04:05:47;;;;;;;3.35;0.63;;;;;;;8.61;74.31;101318.22;5049433;28;20045;-76
2022/03/05 04:11:01;;;;;;;4.22;1.00;;;;;;;8.51;73.44;101329.81;5049192;28;20110;-76
2022/03/05 04:13:29;;;;;;;1.38;0.80;;;;;;;8.48;74.22;101329.69;5041703;28;20119;-75
2022/03/05 04:15:58;;;;;;;1.58;0.50;;;;;;;8.47;74.09;101327.91;5047977;28;20049;-76
2022/03/05 04:18:26;;;;;;;2.90;0.82;;;;;;;8.44;74.32;101332.06;5049293;28;20061;-76
2022/03/05 04:20:57;;;;;;;2.15;0.95;;;;;;;8.40;73.37;101325.84;5050501;28;20049;-75
2022/03/05 04:23:25;;;;;;;2.42;0.70;;;;;;;8.38;74.21;101333.50;5049059;28;20049;-75
2022/03/05 04:25:54;;;;;;;2.42;1.10;;;;;;;8.34;74.20;101333.28;5048805;28;20106;-76
2022/03/05 04:28:22;;;;;;;5.47;2.15;;;;;;;8.31;73.83;101335.69;5044269;28;20733;-75
2022/03/05 04:30:51;;;;;;;4.45;2.25;;;;;;;8.28;74.69;101336.44;5039568;28;20045;-76
2022/03/05 04:33:19;;;;;;;2.92;1.73;;;;;;;8.28;74.44;101336.44;5048520;28;20049;-76
2022/03/05 04:35:48;;;;;;;3.33;1.73;;;;;;;8.27;74.81;101337.25;5048912;28;20059;-77
2022/03/05 04:38:18;;;;;;;4.55;2.03;;;;;;;8.21;74.10;101339.53;5048494;28;20099;-77
2022/03/05 04:40:53;;;;;;;4.93;2.60;;;;;;;8.17;74.47;101342.75;5048922;28;20048;-76
2022/03/05 04:43:21;;;;;;;5.38;2.00;;;;;;;8.10;74.29;101336.44;5048641;28;20053;-75
2022/03/05 04:45:50;;;;;;;2.50;1.55;;;;;;;8.08;74.48;101340.63;5034565;28;20501;-77
2022/03/05 04:48:19;;;;;;;3.10;1.90;;;;;;;8.03;74.62;101334.34;5049031;28;20080;-76
2022/03/05 04:50:48;;;;;;;3.78;1.50;;;;;;;8.02;75.16;101348.06;5048304;28;20483;-75
2022/03/05 04:53:21;;;;;;;3.38;1.85;;;;;;;8.03;74.93;101348.94;5048115;28;20098;-75
2022/03/05 04:55:50;;;;;;;2.92;1.20;;;;;;;8.01;75.10;101350.56;5048875;28;20094;-73
2022/03/05 04:58:19;;;;;;;2.30;0.95;;;;;;;7.96;75.33;101355.50;5048625;28;20485;-75
2022/03/05 05:00:47;;;;;;;3.33;1.13;;;;;;;7.95;75.77;101364.03;5048177;28;20414;-74
2022/03/05 05:03:16;;;;;;;2.08;0.88;;;;;;;7.94;76.33;101362.25;5048217;28;20126;-74
2022/03/05 05:05:44;;;;;;;1.35;0.60;;;;;;;7.92;75.66;101362.16;5048167;28;20131;-74
2022/03/05 05:08:13;;;;;;;1.95;0.80;;;;;;;7.88;75.14;101367.09;5048332;28;20045;-75
2022/03/05 05:10:43;;;;;;;1.27;0.70;;;;;;;7.88;75.77;101374.81;5048501;28;20040;-75
2022/03/05 05:13:11;;;;;;;1.00;0.47;;;;;;;7.86;75.43;101372.19;5050924;28;20080;-76
2022/03/05 05:15:47;;;;;;;1.48;0.60;;;;;;;7.85;75.42;101379.84;5048768;28;20523;-75
2022/03/05 05:18:15;;;;;;;0.98;0.47;;;;;;;7.85;75.53;101384.97;5048837;28;20059;-76
2022/03/05 05:20:44;;;;;;;0.75;0.52;;;;;;;7.81;75.47;101385.63;5048864;28;20044;-76
2022/03/05 05:23:12;;;;;;;1.33;0.50;;;;;;;7.80;75.47;101392.47;5048739;28;20053;-76
2022/03/05 05:25:43;;;;;;;0.93;0.50;;;;;;;7.80;74.95;101394.19;5048391;28;20053;-76
2022/03/05 05:28:12;;;;;;;1.20;0.60;;;;;;;7.81;74.99;101403.66;5048432;28;20098;-74
2022/03/05 05:30:40;;;;;;;1.52;0.70;;;;;;;7.82;75.60;101393.44;5047962;28;20115;-75
2022/03/05 05:33:08;;;;;;;1.48;0.70;;;;;;;7.84;75.24;101396.13;5048386;28;20045;-74
2022/03/05 05:35:37;;;;;;;0.63;0.52;;;;;;;7.83;74.57;101402.06;5034235;28;20049;-74
2022/03/05 05:38:05;;;;;;;0.82;0.60;;;;;;;7.82;75.38;101397.72;5049066;28;20499;-76
2022/03/05 05:40:34;;;;;;;3.72;0.50;;;;;;;7.80;74.98;101404.47;5052117;28;20065;-73
2022/03/05 05:43:04;;;;;;;1.25;0.50;;;;;;;7.71;74.29;101392.88;5051960;28;20044;-74
2022/03/05 05:45:33;;;;;;;1.10;0.60;;;;;;;7.79;74.28;101410.44;5051876;28;20062;-75
2022/03/05 05:48:02;;;;;;;1.52;0.70;;;;;;;7.80;74.76;101420.81;5052448;28;20495;-74
2022/03/05 05:50:31;;;;;;;0.95;0.40;;;;;;;7.78;74.93;101418.97;5051481;28;20076;-76
2022/03/05 05:52:59;;;;;;;0.93;0.52;;;;;;;7.78;75.13;101424.13;5051621;28;20048;-76
2022/03/05 05:55:28;;;;;;;2.17;1.10;;;;;;;7.75;75.03;101420.59;5051765;28;20132;-75
2022/03/05 05:57:56;;;;;;;2.88;0.50;;;;;;;7.74;75.24;101423.97;5051741;28;20143;-74
2022/03/05 06:00:26;;;;;;;2.15;0.52;;;;;;;7.74;74.36;101417.91;5051202;28;20060;-74
2022/03/05 06:02:55;;;;;;;3.05;0.57;;;;;;;7.74;74.32;101423.97;5051652;28;20554;-74
2022/03/05 06:05:23;;;;;;;0.80;0.45;;;;;;;7.74;74.91;101429.13;5051593;28;20045;-73
2022/03/05 06:07:52;;;;;;;0.63;0.40;;;;;;;7.74;74.95;101435.94;5051696;28;20091;-75
2022/03/05 06:10:20;;;;;;;1.08;0.50;;;;;;;7.70;75.95;101437.50;5052411;28;20052;-74
2022/03/05 06:12:49;;;;;;;3.22;1.42;;;;;;;7.66;74.86;101435.56;5050905;28;20124;-74
2022/03/05 06:15:18;;;;;;;1.42;0.95;;;;;;;7.64;75.26;101441.44;5043501;28;20052;-74
2022/03/05 06:17:48;;;;;;;1.13;0.63;;;;;;;7.63;75.21;101439.66;5050913;28;20045;-75
2022/03/05 06:20:17;;;;;;;1.67;0.90;;;;;;;7.61;75.64;101437.03;5051359;28;20443;-75
2022/03/05 06:22:45;;;;;;;4.15;0.77;;;;;;;7.61;75.23;101431.88;5051516;28;20126;-75
2022/03/05 06:25:14;;;;;;;1.38;0.63;;;;;;;7.60;75.12;101445.53;5051056;28;20479;-75
2022/03/05 06:27:42;;;;;;;7.03;2.67;;;;;;;7.61;75.40;101434.44;5051331;28;20053;-75
2022/03/05 06:30:12;;;;;;;2.88;1.52;;;;;;;7.60;75.71;101439.50;5050311;28;20142;-71
2022/03/05 06:32:41;;;;;;;1.73;1.63;;;;;;;7.59;75.98;101443.78;5050811;28;20505;-71
2022/03/05 06:35:11;;;;;;;2.22;1.40;;;;;;;7.59;76.15;101433.47;5050681;28;20098;-74
2022/03/05 06:37:40;;;;;;;4.72;1.35;;;;;;;7.59;76.76;101441.22;5050616;28;20057;-76
2022/03/05 06:40:11;;;;;;;1.67;0.73;;;;;;;7.58;76.53;101434.25;5050983;28;20575;-76
2022/03/05 06:42:41;;;;;;;2.50;0.63;;;;;;;7.56;76.91;101438.47;5037014;28;20072;-77
2022/03/05 06:45:10;;;;;;;1.60;0.80;;;;;;;7.54;76.75;101440.09;5050351;28;20407;-75
2022/03/05 06:47:39;;;;;;;0.80;0.40;;;;;;;7.53;76.94;101433.16;5049607;28;20568;-75
2022/03/05 06:50:11;;;;;;;0.90;0.50;;;;;;;7.54;76.66;101437.50;5050163;28;20250;-75
2022/03/05 06:52:40;;;;;;;0.40;0.32;;;;;;;7.55;77.30;101434.13;5049880;28;20048;-76
2022/03/05 06:55:13;;;;;;;0.50;0.40;;;;;;;7.56;77.30;101428.19;5050488;28;20554;-77
2022/03/05 06:57:42;;;;;;;2.13;0.73;;;;;;;7.53;76.47;101417.69;5050130;28;20052;-77
2022/03/05 07:00:12;;;;;;;0.77;0.47;;;;;;;7.59;76.61;101427.44;5051093;28;20574;-74
2022/03/05 07:02:41;;;;;;;0.45;0.40;;;;;;;7.60;76.87;101439.50;5050063;28;20083;-76
2022/03/05 07:05:12;;;;;;;3.05;0.60;;;;;;;7.61;77.09;101437.03;5050455;28;20091;-75
2022/03/05 07:07:41;;;;;;;2.78;0.60;;;;;;;7.61;76.40;101436.16;5036631;28;20099;-76
2022/03/05 07:10:10;;;;;;;0.85;0.57;;;;;;;7.60;77.86;101434.34;5053840;28;20048;-75
2022/03/05 07:12:40;;;;;;;1.50;0.68;;;;;;;7.58;76.88;101449.72;5048412;28;20123;-77
2022/03/05 07:15:10;;;;;;;1.30;0.50;;;;;;;7.56;77.25;101441.06;5041529;28;20111;-77
2022/03/05 07:17:38;;;;;;;0.77;0.40;;;;;;;7.56;77.52;101438.47;5050429;28;20091;-77
2022/03/05 07:20:08;;;;;;;0.52;0.35;;;;;;;7.55;77.84;101431.53;5050141;28;20453;-75
2022/03/05 07:22:38;;;;;;;0.88;0.43;;;;;;;7.54;77.59;101434.94;5050653;28;20053;-76
2022/03/05 07:25:09;;;;;;;1.27;0.57;;;;;;;7.56;78.08;101443.63;5050276;28;20091;-74
2022/03/05 07:27:38;;;;;;;1.10;0.50;;;;;;;7.57;77.44;101447.09;5049937;28;20045;-76
2022/03/05 07:30:08;;;;;;;0.70;0.50;;;;;;;7.56;77.03;101448.78;5049819;28;20393;-74
2022/03/05 07:32:36;;;;;;;3.35;0.82;;;;;;;7.52;77.11;101447.72;5049771;28;20048;-76
2022/03/05 07:35:06;;;;;;;0.60;0.40;;;;;;;7.52;76.91;101440.00;5049266;28;20052;-74
2022/03/05 07:37:34;;;;;;;1.38;0.70;;;;;;;7.52;77.01;101437.41;5049785;28;20498;-75
2022/03/05 07:40:06;;;;;;;0.63;0.40;;;;;;;7.51;77.59;101439.91;5049869;28;20045;-74
2022/03/05 07:42:35;;;;;;;0.88;0.40;;;;;;;7.53;78.02;101448.59;5049359;28;20124;-75
2022/03/05 07:45:03;;;;;;;0.60;0.40;;;;;;;7.51;77.17;101439.91;5050202;28;20052;-74
2022/03/05 07:47:32;;;;;;;0.30;0.30;;;;;;;7.52;76.93;101452.00;5049865;28;20045;-75
2022/03/05 07:50:01;;;;;;;1.25;0.63;;;;;;;7.53;77.04;101453.75;5049767;28;20076;-74
2022/03/05 07:52:29;;;;;;;0.80;0.47;;;;;;;7.53;77.15;101461.47;5035972;28;20053;-74
2022/03/05 07:54:58;;;;;;;0.98;0.57;;;;;;;7.51;77.16;101464.00;5049750;28;20049;-77
2022/03/05 07:57:28;;;;;;;0.45;0.45;;;;;;;7.50;79.57;101463.91;5049264;28;20085;-75
2022/03/05 07:59:56;;;;;;;3.15;0.52;;;;;;;7.46;78.91;101461.97;5049882;28;20071;-75
2022/03/05 08:02:25;;;;;;;0.40;0.40;;;;;;;7.45;78.46;101470.50;5048697;28;20132;-75
2022/03/05 08:04:53;;;;;;;0.88;0.40;;;;;;;7.35;79.07;101458.78;5049830;28;20106;-72
2022/03/05 08:07:23;;;;;;;0.75;0.57;;;;;;;7.34;79.88;101468.22;5049370;28;20076;-72
2022/03/05 08:09:51;;;;;;;0.80;0.50;;;;;;;7.29;80.11;101473.94;5050871;28;20132;-72
2022/03/05 08:12:20;;;;;;;0.75;0.40;;;;;;;7.23;81.86;101469.31;5049650;28;20122;-72
2022/03/05 08:14:52;;;;;;;0.50;0.45;;;;;;;7.17;84.31;101469.00;5049116;28;20102;-73
2022/03/05 08:17:23;;;;;;;0.57;0.40;;;;;;;7.08;83.44;101471.97;5049253;28;20479;-73
2022/03/05 08:19:51;;;;;;;2.00;0.73;;;;;;;7.06;83.06;101480.41;5049393;28;20075;-73
2022/03/05 08:22:19;;;;;;;0.85;0.65;;;;;;;7.06;82.55;101475.25;5049448;28;20061;-73
2022/03/05 08:24:48;;;;;;;0.70;0.28;;;;;;;7.06;82.25;101480.41;5048885;28;20044;-73
2022/03/05 08:27:17;;;;;;;0.50;0.20;;;;;;;7.09;81.73;101478.88;5048645;28;20049;-72
2022/03/05 08:29:46;;;;;;;1.20;0.60;;;;;;;7.11;81.21;101478.97;5048893;28;20534;-73
2022/03/05 08:32:16;;;;;;;1.65;0.60;;;;;;;7.11;79.76;101484.09;5048550;28;20049;-72
2022/03/05 08:34:44;;;;;;;0.65;0.40;;;;;;;7.07;80.31;101471.88;5048815;28;20167;-72
2022/03/05 08:37:14;;;;;;;2.45;0.60;;;;;;;7.16;79.96;101487.81;5048591;28;20084;-70
2022/03/05 08:39:42;;;;;;;0.38;0.38;;;;;;;7.17;78.62;101494.75;5048082;28;20269;-72
2022/03/05 08:42:11;;;;;;;1.52;0.40;;;;;;;7.16;83.64;101499.81;5048435;28;20137;-73
2022/03/05 08:44:39;;;;;;;1.73;0.43;;;;;;;7.07;81.55;101502.75;5048398;28;20048;-74
2022/03/05 08:47:08;;;;;;;0.80;0.45;;;;;;;7.07;82.54;101503.63;5048805;28;21044;-73
2022/03/05 08:49:38;;;;;;;1.05;0.60;;;;;;;7.00;84.04;101504.09;5048665;28;20076;-72
2022/03/05 08:52:07;;;;;;;0.93;0.65;;;;;;;6.91;81.81;101509.59;5048778;28;20502;-73
2022/03/05 08:54:36;;;;;;;0.52;0.30;;;;;;;6.89;84.14;101510.31;5048837;28;20060;-71
2022/03/05 08:57:05;;;;;;;0.82;0.47;;;;;;;6.82;84.31;101509.06;5049070;28;20049;-72
2022/03/05 08:59:33;;;;;;;0.73;0.47;;;;;;;6.70;84.82;101521.25;5048549;28;20053;-72
2022/03/05 09:02:02;;;;;;;0.82;0.82;;;;;;;6.60;85.41;101524.09;5048137;28;20052;-71
2022/03/05 09:04:30;;;;;;;3.80;0.88;;;;;;;6.55;85.33;101538.34;5048603;28;20049;-71
2022/03/05 09:07:00;;;;;;;1.23;0.57;;;;;;;6.44;86.08;101530.94;5044034;28;20087;-71
2022/03/05 09:09:29;;;;;;;0.82;0.45;;;;;;;6.37;87.16;101546.78;5050576;28;20102;-71
2022/03/05 09:11:57;;;;;;;1.52;0.45;;;;;;;6.35;89.46;101540.66;5048564;28;20269;-71
2022/03/05 09:14:26;;;;;;;0.45;0.40;;;;;;;6.35;89.51;101548.38;5053437;28;20049;-72
2022/03/05 09:16:55;;;;;;;1.77;0.65;;;;;;;6.34;89.29;101546.59;5052125;28;20060;-73
2022/03/05 09:19:23;;;;;;;0.65;0.60;;;;;;;6.29;89.71;101542.88;5052673;28;20099;-72
2022/03/05 09:21:51;;;;;;;0.75;0.55;;;;;;;6.24;89.97;101547.72;5052853;28;20350;-71
2022/03/05 09:24:21;;;;;;;0.60;0.50;;;;;;;6.18;96.88;101549.91;5052014;28;20053;-73
2022/03/05 09:26:50;;;;;;;1.58;0.50;;;;;;;6.12;97.44;101557.28;5052131;28;20392;-73
2022/03/05 09:29:19;;;;;;;0.93;0.43;;;;;;;6.13;99.82;101553.91;5052069;28;20048;-71
2022/03/05 09:31:48;;;;;;;1.27;0.80;;;;;;;6.14;99.18;101552.22;5052015;28;20136;-72
2022/03/05 09:34:16;;;;;;;0.75;0.70;;;;;;;6.11;98.46;101546.91;5051865;28;20566;-71
2022/03/05 09:36:47;;;;;;;1.08;0.70;;;;;;;6.12;98.25;101548.69;5051599;28;20135;-71
2022/03/05 09:39:16;;;;;;;1.33;0.80;;;;;;;6.14;97.43;101541.94;5051569;28;20092;-71
2022/03/05 09:41:46;;;;;;;4.82;1.83;;;;;;;6.14;96.32;101548.00;5050755;28;20041;-71
2022/03/05 09:44:15;;;;;;;3.72;1.38;;;;;;;6.12;97.09;101543.56;5051883;28;20076;-71
2022/03/05 09:46:44;;;;;;;1.98;0.88;;;;;;;6.12;96.68;101551.25;5050437;28;20666;-71
2022/03/05 09:49:13;;;;;;;1.80;1.00;;;;;;;6.07;97.43;101546.72;5051868;28;20045;-71
2022/03/05 09:51:42;;;;;;;2.08;0.90;;;;;;;6.03;97.16;101547.34;5051330;28;20530;-72
2022/03/05 09:54:10;;;;;;;1.45;1.10;;;;;;;6.01;98.38;101545.47;5052131;28;20090;-72
2022/03/05 09:56:39;;;;;;;2.80;0.82;;;;;;;5.96;99.16;101544.31;5051904;28;20138;-72
2022/03/05 09:59:10;;;;;;;1.48;0.70;;;;;;;5.93;100.00;101547.53;5052196;28;20114;-72
2022/03/05 10:01:38;;;;;;;2.28;0.68;;;;;;;5.85;100.00;101556.47;5052382;28;20152;-72
2022/03/05 10:04:20;;;;;;;1.20;0.65;;;;;;;5.73;100.00;101560.84;5051517;28;20045;-72
2022/03/05 10:07:08;;;;;;;1.23;0.70;;;;;;;5.55;100.00;101558.03;5041969;28;20053;-71
2022/03/05 10:09:36;;;;;;;1.40;0.57;;;;;;;5.43;100.00;101561.59;5039950;28;20097;-72
2022/03/05 10:12:26;;;;;;;1.10;0.60;;;;;;;5.39;100.00;101564.75;5051566;28;20049;-70
2022/03/05 10:15:10;;;;;;;2.60;0.73;;;;;;;5.34;100.00;101558.44;5039697;28;20045;-72
2022/03/05 10:17:52;;;;;;;0.75;0.70;;;;;;;5.32;100.00;101556.56;5051390;28;20522;-71
2022/03/05 10:20:21;;;;;;;2.03;0.67;;;;;;;5.31;100.00;101553.09;5051919;28;20084;-71
2022/03/05 10:22:58;;;;;;;1.58;0.63;;;;;;;5.30;100.00;101545.31;5051620;28;20052;-71
2022/03/05 10:25:32;;;;;;;0.40;0.32;;;;;;;5.29;100.00;101551.22;5037803;28;20053;-71
2022/03/05 10:28:03;;;;;;;2.58;0.50;;;;;;;5.28;100.00;101558.03;5049740;28;20083;-72
2022/03/05 10:30:34;;;;;;;0.70;0.55;;;;;;;5.27;100.00;101552.81;5039437;28;20126;-72
2022/03/05 10:33:04;;;;;;;1.52;0.60;;;;;;;5.24;100.00;101556.97;5050627;28;20044;-71
2022/03/05 10:35:33;;;;;;;1.42;0.60;;;;;;;5.22;100.00;101562.78;5051137;28;20088;-72
2022/03/05 10:38:02;;;;;;;0.73;0.70;;;;;;;5.22;100.00;101568.81;5051341;28;20080;-72
2022/03/05 10:40:33;;;;;;;1.33;0.60;;;;;;;5.23;100.00;101565.44;5051375;28;20068;-71
2022/03/05 10:43:03;;;;;;;1.17;0.73;;;;;;;5.23;100.00;101565.44;5050903;28;20045;-70
2022/03/05 10:45:50;;;;;;;1.13;0.60;;;;;;;5.22;100.00;101566.25;5050616;28;20095;-72
2022/03/05 10:48:24;;;;;;;4.25;1.00;;;;;;;5.19;100.00;101562.59;5050769;28;20049;-72
2022/03/05 10:50:58;;;;;;;2.42;1.08;;;;;;;5.17;100.00;101574.44;5051056;28;20045;-71
2022/03/05 10:53:41;;;;;;;3.47;1.13;;;;;;;5.08;100.00;101572.16;5051127;28;20201;-72
2022/03/05 10:56:27;;;;;;;5.57;1.88;;;;;;;5.04;100.00;101562.50;5037428;28;20052;-72
2022/03/05 10:59:03;;;;;;;4.13;1.50;;;;;;;5.03;100.00;101564.16;5051307;28;20048;-72
2022/03/05 11:01:34;;;;;;;2.40;1.00;;;;;;;4.90;100.00;101555.56;5051225;28;20041;-72
2022/03/05 11:04:03;;;;;;;3.05;1.08;;;;;;;4.92;100.00;101564.25;5050819;28;20045;-72
2022/03/05 11:06:32;;;;;;;2.88;1.10;;;;;;;4.88;100.00;101563.19;5051535;28;20052;-73
2022/03/05 11:09:01;;;;;;;4.10;1.20;;;;;;;4.93;100.00;101559.25;5053436;28;20041;-71
2022/03/05 11:11:31;;;;;;;1.63;1.10;;;;;;;4.91;100.00;101560.81;5050341;28;20087;-71
2022/03/05 11:14:00;;;;;;;2.20;1.00;;;;;;;4.90;100.00;101568.41;5050427;28;20122;-71
2022/03/05 11:16:30;;;;;;;3.92;1.30;;;;;;;4.85;100.00;101559.53;5050131;28;20122;-71
2022/03/05 11:19:00;;;;;;;1.63;1.00;;;;;;;4.83;100.00;101573.16;5044591;28;20139;-72
2022/03/05 11:21:29;;;;;;;1.95;0.90;;;;;;;4.82;100.00;101573.91;5040297;28;20054;-71
2022/03/05 11:23:59;;;;;;;1.13;0.90;;;;;;;4.77;100.00;101570.16;5030337;28;20050;-72
2022/03/05 11:26:29;;;;;;;1.38;0.77;;;;;;;4.75;100.00;101566.59;5029639;28;20133;-72
2022/03/05 11:28:58;;;;;;;2.63;1.20;;;;;;;4.76;100.00;101570.06;5029967;28;20049;-72
2022/03/05 11:31:32;;;;;;;2.38;0.80;;;;;;;4.71;100.00;101561.19;5030108;28;20095;-72
2022/03/05 11:34:15;;;;;;;2.05;1.00;;;;;;;4.65;100.00;101571.03;5029948;28;20234;-71
2022/03/05 11:36:44;;;;;;;;;;;;;;;4.58;100.00;101572.28;5029246;28;20053;-72
2022/03/05 11:39:19;;;;;;;2.00;0.82;;;;;;;4.46;100.00;101571.47;5030290;28;19972;-72
2022/03/05 11:42:09;;;;;;;3.92;1.00;;;;;;;4.39;100.00;101578.75;5014976;28;20076;-71
2022/03/05 11:44:45;;;;;;;1.75;0.80;;;;;;;4.39;100.00;101568.50;5026521;28;20046;-72
2022/03/05 11:47:27;;;;;;;1.35;0.73;;;;;;;4.32;100.00;101576.56;5029417;28;20052;-71